Terminal Aerodrome Forecast
Issued by NWS

Home | Current Version | Previous Version | Text Only | Print | Product List | Glossary On
Versions: 1 2 3 4 5 6 7 8 9 10 11 12 13 14 15 16 17 18
000
FTUS42 KTAE 312327
TAFVLD
TAF
KVLD 312327Z 0100/0124 18003KT P6SM VCTS SCT040CB
     FM010200 00000KT 6SM BR BKN250
      TEMPO 0110/0112 5SM BR SCT005
     FM011800 18010KT 3SM TSRA BKN030CB
     FM012200 22008KT 6SM -TSRA SCT040CB BKN100=

USA.gov is the U.S. government's official web portal to all federal, state and local government web resources and services.